sensor_id;sensor_type;location;lat;lon;timestamp;pressure;altitude;pressure_sealevel;temperature;humidity
8697;BME280;4385;48.848;8.924;2022-10-31T00:02:23;97871.88;;;19.82;100.00
8697;BME280;4385;48.848;8.924;2022-10-31T00:04:48;97872.75;;;19.83;100.00
8697;BME280;4385;48.848;8.924;2022-10-31T00:07:13;97876.19;;;19.81;100.00
8697;BME280;4385;48.848;8.924;2022-10-31T00:09:39;97871.13;;;19.78;100.00
8697;BME280;4385;48.848;8.924;2022-10-31T00:12:04;97878.84;;;19.77;100.00
8697;BME280;4385;48.848;8.924;2022-10-31T00:14:30;97877.13;;;19.76;100.00
8697;BME280;4385;48.848;8.924;2022-10-31T00:16:55;97877.97;;;19.76;100.00
8697;BME280;4385;48.848;8.924;2022-10-31T00:19:20;97878.88;;;19.75;100.00
8697;BME280;4385;48.848;8.924;2022-10-31T00:21:46;97876.31;;;19.75;100.00
8697;BME280;4385;48.848;8.924;2022-10-31T00:24:11;97877.13;;;19.76;100.00
8697;BME280;4385;48.848;8.924;2022-10-31T00:26:36;97879.72;;;19.74;100.00
8697;BME280;4385;48.848;8.924;2022-10-31T00:29:02;97882.28;;;19.74;100.00
8697;BME280;4385;48.848;8.924;2022-10-31T00:31:27;97870.34;;;19.75;100.00
8697;BME280;4385;48.848;8.924;2022-10-31T00:33:53;97877.16;;;19.74;100.00
8697;BME280;4385;48.848;8.924;2022-10-31T00:36:19;97875.44;;;19.76;100.00
8697;BME280;4385;48.848;8.924;2022-10-31T00:38:45;97879.72;;;19.74;100.00
8697;BME280;4385;48.848;8.924;2022-10-31T00:41:12;97876.34;;;19.74;100.00
8697;BME280;4385;48.848;8.924;2022-10-31T00:43:37;97878.91;;;19.74;100.00
8697;BME280;4385;48.848;8.924;2022-10-31T00:46:03;97874.56;;;19.76;100.00
8697;BME280;4385;48.848;8.924;2022-10-31T00:48:29;97869.50;;;19.74;100.00
8697;BME280;4385;48.848;8.924;2022-10-31T00:50:54;97872.94;;;19.73;100.00
8697;BME280;4385;48.848;8.924;2022-10-31T00:53:20;97866.97;;;19.73;100.00
8697;BME280;4385;48.848;8.924;2022-10-31T00:55:45;97865.28;;;19.72;100.00
8697;BME280;4385;48.848;8.924;2022-10-31T00:58:11;97870.41;;;19.72;100.00
8697;BME280;4385;48.848;8.924;2022-10-31T01:00:36;97872.13;;;19.71;100.00
8697;BME280;4385;48.848;8.924;2022-10-31T01:03:02;97874.66;;;19.71;100.00
8697;BME280;4385;48.848;8.924;2022-10-31T01:05:27;97873.84;;;19.71;100.00
8697;BME280;4385;48.848;8.924;2022-10-31T01:07:53;97877.25;;;19.69;100.00
8697;BME280;4385;48.848;8.924;2022-10-31T01:10:18;97875.63;;;19.67;100.00
8697;BME280;4385;48.848;8.924;2022-10-31T01:12:45;97871.38;;;19.66;100.00
8697;BME280;4385;48.848;8.924;2022-10-31T01:15:15;97873.13;;;19.64;100.00
8697;BME280;4385;48.848;8.924;2022-10-31T01:17:40;97876.56;;;19.63;100.00
8697;BME280;4385;48.848;8.924;2022-10-31T01:20:07;97871.44;;;19.63;100.00
8697;BME280;4385;48.848;8.924;2022-10-31T01:22:33;97865.50;;;19.62;100.00
8697;BME280;4385;48.848;8.924;2022-10-31T01:24:58;97867.22;;;19.60;100.00
8697;BME280;4385;48.848;8.924;2022-10-31T01:27:24;97858.72;;;19.61;100.00
8697;BME280;4385;48.848;8.924;2022-10-31T01:29:49;97868.94;;;19.61;100.00
8697;BME280;4385;48.848;8.924;2022-10-31T01:32:15;97865.53;;;19.61;100.00
8697;BME280;4385;48.848;8.924;2022-10-31T01:34:40;97858.75;;;19.60;100.00
8697;BME280;4385;48.848;8.924;2022-10-31T01:37:05;97857.00;;;19.60;100.00
8697;BME280;4385;48.848;8.924;2022-10-31T01:39:30;97858.75;;;19.60;100.00
8697;BME280;4385;48.848;8.924;2022-10-31T01:41:56;97863.00;;;19.59;100.00
8697;BME280;4385;48.848;8.924;2022-10-31T01:46:59;97863.03;;;19.58;100.00
8697;BME280;4385;48.848;8.924;2022-10-31T01:49:36;97859.59;;;19.59;100.00
8697;BME280;4385;48.848;8.924;2022-10-31T01:52:42;97857.91;;;19.58;100.00
8697;BME280;4385;48.848;8.924;2022-10-31T01:55:30;97862.22;;;19.55;100.00
8697;BME280;4385;48.848;8.924;2022-10-31T01:58:01;97866.53;;;19.53;100.00
8697;BME280;4385;48.848;8.924;2022-10-31T02:00:28;97860.56;;;19.53;100.00
8697;BME280;4385;48.848;8.924;2022-10-31T02:02:53;97859.72;;;19.52;100.00
8697;BME280;4385;48.848;8.924;2022-10-31T02:05:23;97856.38;;;19.50;100.00
8697;BME280;4385;48.848;8.924;2022-10-31T02:07:59;97859.78;;;19.49;100.00
8697;BME280;4385;48.848;8.924;2022-10-31T02:10:27;97859.78;;;19.49;100.00
8697;BME280;4385;48.848;8.924;2022-10-31T02:12:56;97866.66;;;19.47;100.00
8697;BME280;4385;48.848;8.924;2022-10-31T02:15:23;97862.38;;;19.48;100.00
8697;BME280;4385;48.848;8.924;2022-10-31T02:17:48;97859.84;;;19.46;100.00
8697;BME280;4385;48.848;8.924;2022-10-31T02:25:56;97859.00;;;19.47;100.00
8697;BME280;4385;48.848;8.924;2022-10-31T02:28:34;97862.34;;;19.49;100.00
8697;BME280;4385;48.848;8.924;2022-10-31T02:34:18;97853.00;;;19.48;100.00
8697;BME280;4385;48.848;8.924;2022-10-31T02:37:08;97862.31;;;19.51;100.00
8697;BME280;4385;48.848;8.924;2022-10-31T02:39:42;97850.47;;;19.47;100.00
8697;BME280;4385;48.848;8.924;2022-10-31T02:42:16;97850.50;;;19.45;100.00
8697;BME280;4385;48.848;8.924;2022-10-31T02:44:47;97852.16;;;19.48;100.00
8697;BME280;4385;48.848;8.924;2022-10-31T02:47:16;97847.88;;;19.48;100.00
8697;BME280;4385;48.848;8.924;2022-10-31T02:49:53;97849.56;;;19.49;100.00
8697;BME280;4385;48.848;8.924;2022-10-31T02:52:29;97842.78;;;19.48;100.00
8697;BME280;4385;48.848;8.924;2022-10-31T02:54:55;97847.88;;;19.48;100.00
8697;BME280;4385;48.848;8.924;2022-10-31T02:57:32;97846.19;;;19.49;100.00
8697;BME280;4385;48.848;8.924;2022-10-31T03:00:07;97850.50;;;19.45;100.00
8697;BME280;4385;48.848;8.924;2022-10-31T03:05:14;97853.94;;;19.44;100.00
8697;BME280;4385;48.848;8.924;2022-10-31T03:11:12;97853.06;;;19.45;100.00
8697;BME280;4385;48.848;8.924;2022-10-31T03:13:57;97853.94;;;19.44;100.00
8697;BME280;4385;48.848;8.924;2022-10-31T03:21:50;97853.13;;;19.42;100.00
8697;BME280;4385;48.848;8.924;2022-10-31T03:24:19;97858.22;;;19.42;100.00
8697;BME280;4385;48.848;8.924;2022-10-31T03:26:49;97859.97;;;19.40;100.00
8697;BME280;4385;48.848;8.924;2022-10-31T03:29:19;97854.94;;;19.35;100.00
8697;BME280;4385;48.848;8.924;2022-10-31T03:31:55;97852.44;;;19.34;100.00
8697;BME280;4385;48.848;8.924;2022-10-31T03:34:22;97853.34;;;19.31;100.00
8697;BME280;4385;48.848;8.924;2022-10-31T03:36:51;97851.56;;;19.35;100.00
8697;BME280;4385;48.848;8.924;2022-10-31T03:39:19;97854.13;;;19.35;100.00
8697;BME280;4385;48.848;8.924;2022-10-31T03:41:51;97849.94;;;19.30;100.00
8697;BME280;4385;48.848;8.924;2022-10-31T03:44:20;97849.97;;;19.29;100.00
8697;BME280;4385;48.848;8.924;2022-10-31T03:46:47;97841.47;;;19.28;100.00
8697;BME280;4385;48.848;8.924;2022-10-31T03:49:13;97848.28;;;19.28;100.00
8697;BME280;4385;48.848;8.924;2022-10-31T03:51:46;97850.00;;;19.27;100.00
8697;BME280;4385;48.848;8.924;2022-10-31T03:54:21;97847.44;;;19.27;100.00
8697;BME280;4385;48.848;8.924;2022-10-31T03:56:53;97843.25;;;19.25;100.00
8697;BME280;4385;48.848;8.924;2022-10-31T03:59:25;97841.53;;;19.25;100.00
8697;BME280;4385;48.848;8.924;2022-10-31T04:01:56;97846.66;;;19.25;100.00
8697;BME280;4385;48.848;8.924;2022-10-31T04:04:23;97841.53;;;19.25;100.00
8697;BME280;4385;48.848;8.924;2022-10-31T04:06:50;97839.84;;;19.24;100.00
8697;BME280;4385;48.848;8.924;2022-10-31T04:09:18;97840.78;;;19.20;100.00
8697;BME280;4385;48.848;8.924;2022-10-31T04:11:50;97837.28;;;19.24;100.00
8697;BME280;4385;48.848;8.924;2022-10-31T04:14:16;97839.88;;;19.23;100.00
8697;BME280;4385;48.848;8.924;2022-10-31T04:16:43;97831.38;;;19.22;100.00
8697;BME280;4385;48.848;8.924;2022-10-31T04:19:10;97839.91;;;19.21;100.00
8697;BME280;4385;48.848;8.924;2022-10-31T04:21:35;97836.56;;;19.19;100.00
8697;BME280;4385;48.848;8.924;2022-10-31T04:24:00;97832.38;;;19.13;100.00
8697;BME280;4385;48.848;8.924;2022-10-31T04:26:26;97831.63;;;19.10;100.00
8697;BME280;4385;48.848;8.924;2022-10-31T04:28:51;97827.31;;;19.12;100.00
8697;BME280;4385;48.848;8.924;2022-10-31T04:31:17;97833.28;;;19.11;100.00
8697;BME280;4385;48.848;8.924;2022-10-31T04:33:42;97829.78;;;19.15;100.00
8697;BME280;4385;48.848;8.924;2022-10-31T04:36:07;97828.97;;;19.14;100.00
8697;BME280;4385;48.848;8.924;2022-10-31T04:38:33;97828.13;;;19.14;100.00
8697;BME280;4385;48.848;8.924;2022-10-31T04:40:58;97825.56;;;19.14;100.00
8697;BME280;4385;48.848;8.924;2022-10-31T04:43:24;97824.63;;;19.18;100.00
8697;BME280;4385;48.848;8.924;2022-10-31T04:45:49;97821.28;;;19.16;100.00
8697;BME280;4385;48.848;8.924;2022-10-31T04:48:14;97822.06;;;19.18;100.00
8697;BME280;4385;48.848;8.924;2022-10-31T04:50:40;97816.13;;;19.17;100.00
8697;BME280;4385;48.848;8.924;2022-10-31T04:53:05;97817.78;;;19.20;100.00
8697;BME280;4385;48.848;8.924;2022-10-31T04:55:31;97813.56;;;19.19;100.00
8697;BME280;4385;48.848;8.924;2022-10-31T04:57:56;97807.56;;;19.20;100.00
8697;BME280;4385;48.848;8.924;2022-10-31T05:00:22;97814.34;;;19.21;100.00
8697;BME280;4385;48.848;8.924;2022-10-31T05:02:52;97808.44;;;19.19;100.00
8697;BME280;4385;48.848;8.924;2022-10-31T05:05:20;97805.91;;;19.19;100.00
8697;BME280;4385;48.848;8.924;2022-10-31T05:07:47;97805.91;;;19.19;100.00
8697;BME280;4385;48.848;8.924;2022-10-31T05:10:21;97810.16;;;19.18;100.00
8697;BME280;4385;48.848;8.924;2022-10-31T05:12:51;97804.16;;;19.19;100.00
8697;BME280;4385;48.848;8.924;2022-10-31T05:15:18;97802.47;;;19.20;100.00
8697;BME280;4385;48.848;8.924;2022-10-31T05:17:44;97804.16;;;19.19;100.00
8697;BME280;4385;48.848;8.924;2022-10-31T05:20:14;97809.25;;;19.21;100.00
8697;BME280;4385;48.848;8.924;2022-10-31T05:22:47;97800.72;;;19.22;100.00
8697;BME280;4385;48.848;8.924;2022-10-31T05:25:13;97797.28;;;19.23;100.00
8697;BME280;4385;48.848;8.924;2022-10-31T05:27:40;97802.41;;;19.23;100.00
8697;BME280;4385;48.848;8.924;2022-10-31T05:30:06;97804.06;;;19.24;100.00
8697;BME280;4385;48.848;8.924;2022-10-31T05:32:39;97796.44;;;19.23;100.00
8697;BME280;4385;48.848;8.924;2022-10-31T05:35:08;97800.72;;;19.22;100.00
8697;BME280;4385;48.848;8.924;2022-10-31T05:37:37;97798.16;;;19.22;100.00
8697;BME280;4385;48.848;8.924;2022-10-31T05:40:04;97791.38;;;19.19;100.00
8697;BME280;4385;48.848;8.924;2022-10-31T05:42:30;97793.97;;;19.18;100.00
8697;BME280;4385;48.848;8.924;2022-10-31T05:44:55;97788.88;;;19.18;100.00
8697;BME280;4385;48.848;8.924;2022-10-31T05:47:20;97795.75;;;19.16;100.00
8697;BME280;4385;48.848;8.924;2022-10-31T05:49:46;97786.38;;;19.15;100.00
8697;BME280;4385;48.848;8.924;2022-10-31T05:52:11;97787.31;;;19.11;100.00
8697;BME280;4385;48.848;8.924;2022-10-31T05:54:36;97790.69;;;19.13;100.00
8697;BME280;4385;48.848;8.924;2022-10-31T05:57:01;97780.47;;;19.13;100.00
8697;BME280;4385;48.848;8.924;2022-10-31T05:59:27;97784.72;;;19.12;100.00
8697;BME280;4385;48.848;8.924;2022-10-31T06:01:52;97789.00;;;19.12;100.00
8697;BME280;4385;48.848;8.924;2022-10-31T06:04:17;97788.16;;;19.11;100.00
8697;BME280;4385;48.848;8.924;2022-10-31T06:06:42;97789.03;;;19.10;100.00
8697;BME280;4385;48.848;8.924;2022-10-31T06:09:08;97785.59;;;19.13;100.00
8697;BME280;4385;48.848;8.924;2022-10-31T06:11:34;97787.25;;;19.14;100.00
8697;BME280;4385;48.848;8.924;2022-10-31T06:13:59;97783.84;;;19.13;100.00
8697;BME280;4385;48.848;8.924;2022-10-31T06:16:24;97777.91;;;19.13;100.00
8697;BME280;4385;48.848;8.924;2022-10-31T06:18:49;97781.41;;;19.05;100.00
8697;BME280;4385;48.848;8.924;2022-10-31T06:21:15;97778.88;;;19.05;100.00
8697;BME280;4385;48.848;8.924;2022-10-31T06:23:40;97783.16;;;19.05;100.00
8697;BME280;4385;48.848;8.924;2022-10-31T06:26:05;97779.72;;;19.06;100.00
8697;BME280;4385;48.848;8.924;2022-10-31T06:28:30;97782.28;;;19.04;100.00
8697;BME280;4385;48.848;8.924;2022-10-31T06:30:56;97782.34;;;19.01;100.00
8697;BME280;4385;48.848;8.924;2022-10-31T06:33:21;97779.69;;;19.07;100.00
8697;BME280;4385;48.848;8.924;2022-10-31T06:35:46;97777.13;;;19.07;100.00
8697;BME280;4385;48.848;8.924;2022-10-31T06:38:13;97775.47;;;19.06;100.00
8697;BME280;4385;48.848;8.924;2022-10-31T06:40:38;97772.91;;;19.06;100.00
8697;BME280;4385;48.848;8.924;2022-10-31T06:43:03;97776.34;;;19.04;100.00
8697;BME280;4385;48.848;8.924;2022-10-31T06:45:28;97773.09;;;18.97;100.00
8697;BME280;4385;48.848;8.924;2022-10-31T06:47:55;97771.41;;;18.94;100.00
8697;BME280;4385;48.848;8.924;2022-10-31T06:50:21;97773.09;;;18.97;100.00
8697;BME280;4385;48.848;8.924;2022-10-31T06:52:55;97775.59;;;18.99;100.00
8697;BME280;4385;48.848;8.924;2022-10-31T06:55:21;97775.59;;;19.00;100.00
8697;BME280;4385;48.848;8.924;2022-10-31T06:57:58;97773.88;;;18.99;100.00
8697;BME280;4385;48.848;8.924;2022-10-31T07:00:25;97779.81;;;19.01;100.00
8697;BME280;4385;48.848;8.924;2022-10-31T07:02:58;97778.88;;;19.05;100.00
8697;BME280;4385;48.848;8.924;2022-10-31T07:05:24;97778.84;;;19.07;100.00
8697;BME280;4385;48.848;8.924;2022-10-31T07:07:54;97790.75;;;19.10;100.00
8697;BME280;4385;48.848;8.924;2022-10-31T07:10:20;97788.09;;;19.14;100.00
8697;BME280;4385;48.848;8.924;2022-10-31T07:12:46;97788.00;;;19.19;100.00
8697;BME280;4385;48.848;8.924;2022-10-31T07:15:11;97789.66;;;19.22;100.00
8697;BME280;4385;48.848;8.924;2022-10-31T07:17:36;97785.34;;;19.24;100.00
8697;BME280;4385;48.848;8.924;2022-10-31T07:20:01;97793.81;;;19.26;100.00
8697;BME280;4385;48.848;8.924;2022-10-31T07:22:37;97784.38;;;19.29;100.00
8697;BME280;4385;48.848;8.924;2022-10-31T07:25:03;97790.31;;;19.31;100.00
8697;BME280;4385;48.848;8.924;2022-10-31T07:27:28;97789.38;;;19.36;100.00
8697;BME280;4385;48.848;8.924;2022-10-31T07:29:53;97796.13;;;19.38;100.00
8697;BME280;4385;48.848;8.924;2022-10-31T07:32:19;97788.41;;;19.40;100.00
8697;BME280;4385;48.848;8.924;2022-10-31T07:34:44;97796.84;;;19.45;100.00
8697;BME280;4385;48.848;8.924;2022-10-31T07:37:09;97800.16;;;19.50;100.00
8697;BME280;4385;48.848;8.924;2022-10-31T07:39:35;97793.25;;;19.52;100.00
8697;BME280;4385;48.848;8.924;2022-10-31T07:42:00;97794.97;;;19.53;100.00
8697;BME280;4385;48.848;8.924;2022-10-31T07:44:25;97795.75;;;19.55;100.00
8697;BME280;4385;48.848;8.924;2022-10-31T07:46:50;97797.38;;;19.60;100.00
8697;BME280;4385;48.848;8.924;2022-10-31T07:49:16;97797.34;;;19.61;100.00
8697;BME280;4385;48.848;8.924;2022-10-31T07:51:41;97799.00;;;19.64;100.00
8697;BME280;4385;48.848;8.924;2022-10-31T07:54:06;97798.06;;;19.66;100.00
8697;BME280;4385;48.848;8.924;2022-10-31T07:56:32;97804.00;;;19.68;100.00
8697;BME280;4385;48.848;8.924;2022-10-31T07:58:57;97803.09;;;19.71;100.00
8697;BME280;4385;48.848;8.924;2022-10-31T08:01:22;97796.22;;;19.73;100.00
8697;BME280;4385;48.848;8.924;2022-10-31T08:03:47;97801.31;;;19.75;100.00
8697;BME280;4385;48.848;8.924;2022-10-31T08:06:13;97796.16;;;19.76;100.00
8697;BME280;4385;48.848;8.924;2022-10-31T08:08:38;97794.50;;;19.75;100.00
8697;BME280;4385;48.848;8.924;2022-10-31T08:11:03;97796.16;;;19.76;100.00
8697;BME280;4385;48.848;8.924;2022-10-31T08:13:28;97791.88;;;19.78;100.00
8697;BME280;4385;48.848;8.924;2022-10-31T08:15:54;97791.78;;;19.81;100.00
8697;BME280;4385;48.848;8.924;2022-10-31T08:18:20;97787.47;;;19.84;100.00
8697;BME280;4385;48.848;8.924;2022-10-31T08:20:48;97778.09;;;19.84;100.00
8697;BME280;4385;48.848;8.924;2022-10-31T08:23:14;97776.34;;;19.86;100.00
8697;BME280;4385;48.848;8.924;2022-10-31T08:25:39;97771.16;;;19.89;100.00
8697;BME280;4385;48.848;8.924;2022-10-31T08:28:06;97776.19;;;19.92;100.00
8697;BME280;4385;48.848;8.924;2022-10-31T08:30:34;97770.22;;;19.92;100.00
8697;BME280;4385;48.848;8.924;2022-10-31T08:33:11;97766.78;;;19.93;100.00
8697;BME280;4385;48.848;8.924;2022-10-31T08:35:37;97765.03;;;19.95;100.00
8697;BME280;4385;48.848;8.924;2022-10-31T08:38:03;97764.09;;;19.99;100.00
8697;BME280;4385;48.848;8.924;2022-10-31T08:40:29;97762.34;;;20.01;100.00
8697;BME280;4385;48.848;8.924;2022-10-31T08:42:59;97756.38;;;20.02;100.00
8697;BME280;4385;48.848;8.924;2022-10-31T08:45:25;97754.63;;;20.04;100.00
8697;BME280;4385;48.848;8.924;2022-10-31T08:47:51;97752.03;;;20.06;100.00
8697;BME280;4385;48.848;8.924;2022-10-31T08:50:17;97754.53;;;20.08;100.00
8697;BME280;4385;48.848;8.924;2022-10-31T08:52:42;97753.66;;;20.09;100.00
8697;BME280;4385;48.848;8.924;2022-10-31T08:55:08;97752.75;;;20.11;100.00
8697;BME280;4385;48.848;8.924;2022-10-31T08:57:33;97750.97;;;20.13;100.00
8697;BME280;4385;48.848;8.924;2022-10-31T08:59:58;97751.78;;;20.15;100.00
8697;BME280;4385;48.848;8.924;2022-10-31T09:02:23;97752.59;;;20.17;100.00
8697;BME280;4385;48.848;8.924;2022-10-31T09:04:49;97744.91;;;20.19;100.00
8697;BME280;4385;48.848;8.924;2022-10-31T09:07:14;97740.56;;;20.21;100.00
8697;BME280;4385;48.848;8.924;2022-10-31T09:09:39;97738.81;;;20.23;100.00
8697;BME280;4385;48.848;8.924;2022-10-31T09:12:05;97732.75;;;20.26;100.00
8697;BME280;4385;48.848;8.924;2022-10-31T09:14:30;97735.28;;;20.27;100.00
8697;BME280;4385;48.848;8.924;2022-10-31T09:16:55;97735.19;;;20.30;100.00
8697;BME280;4385;48.848;8.924;2022-10-31T09:19:20;97735.09;;;20.35;100.00
8697;BME280;4385;48.848;8.924;2022-10-31T09:21:46;97736.75;;;20.38;100.00
8697;BME280;4385;48.848;8.924;2022-10-31T09:24:11;97742.66;;;20.40;100.00
8697;BME280;4385;48.848;8.924;2022-10-31T09:26:36;97738.34;;;20.42;100.00
8697;BME280;4385;48.848;8.924;2022-10-31T09:29:02;97738.16;;;20.48;100.00
8697;BME280;4385;48.848;8.924;2022-10-31T09:31:27;97730.41;;;20.51;100.00
8697;BME280;4385;48.848;8.924;2022-10-31T09:33:53;97742.31;;;20.52;100.00
8697;BME280;4385;48.848;8.924;2022-10-31T09:36:19;97738.00;;;20.54;100.00
8697;BME280;4385;48.848;8.924;2022-10-31T09:38:44;97742.19;;;20.57;100.00
8697;BME280;4385;48.848;8.924;2022-10-31T09:43:58;97739.59;;;20.59;100.00
8697;BME280;4385;48.848;8.924;2022-10-31T09:46:49;97737.75;;;20.64;100.00
8697;BME280;4385;48.848;8.924;2022-10-31T09:52:35;97737.59;;;20.70;100.00
8697;BME280;4385;48.848;8.924;2022-10-31T09:55:13;97743.47;;;20.74;100.00
8697;BME280;4385;48.848;8.924;2022-10-31T09:57:41;97746.00;;;20.75;100.00
8697;BME280;4385;48.848;8.924;2022-10-31T10:00:09;97741.66;;;20.77;100.00
8697;BME280;4385;48.848;8.924;2022-10-31T10:02:54;97738.97;;;20.82;100.00
8697;BME280;4385;48.848;8.924;2022-10-31T10:05:26;97732.03;;;20.86;100.00
8697;BME280;4385;48.848;8.924;2022-10-31T10:08:01;97738.78;;;20.88;100.00
8697;BME280;4385;48.848;8.924;2022-10-31T10:10:38;97742.19;;;20.89;100.00
8697;BME280;4385;48.848;8.924;2022-10-31T10:18:57;97722.41;;;20.96;100.00
8697;BME280;4385;48.848;8.924;2022-10-31T10:21:46;97714.56;;;21.02;100.00
8697;BME280;4385;48.848;8.924;2022-10-31T10:24:34;97708.50;;;21.04;100.00
8697;BME280;4385;48.848;8.924;2022-10-31T10:29:58;97713.56;;;21.06;100.00
8697;BME280;4385;48.848;8.924;2022-10-31T10:32:37;97710.13;;;21.07;100.00
8697;BME280;4385;48.848;8.924;2022-10-31T10:35:21;97716.00;;;21.11;100.00
8697;BME280;4385;48.848;8.924;2022-10-31T10:37:49;97709.97;;;21.12;100.00
8697;BME280;4385;48.848;8.924;2022-10-31T10:40:18;97709.06;;;21.14;100.00
8697;BME280;4385;48.848;8.924;2022-10-31T10:42:55;97707.28;;;21.16;100.00
8697;BME280;4385;48.848;8.924;2022-10-31T10:45:42;97702.16;;;21.16;100.00
8697;BME280;4385;48.848;8.924;2022-10-31T10:48:55;97703.81;;;21.19;100.00
8697;BME280;4385;48.848;8.924;2022-10-31T10:59:09;97694.22;;;21.24;100.00
8697;BME280;4385;48.848;8.924;2022-10-31T11:01:36;97687.34;;;21.26;100.00
8697;BME280;4385;48.848;8.924;2022-10-31T11:04:02;97674.53;;;21.26;100.00
8697;BME280;4385;48.848;8.924;2022-10-31T11:06:27;97674.44;;;21.29;100.00
8697;BME280;4385;48.848;8.924;2022-10-31T11:08:53;97669.22;;;21.33;100.00
8697;BME280;4385;48.848;8.924;2022-10-31T11:11:30;97669.13;;;21.36;100.00
8697;BME280;4385;48.848;8.924;2022-10-31T11:14:03;97661.38;;;21.37;100.00
8697;BME280;4385;48.848;8.924;2022-10-31T11:16:35;97655.44;;;21.37;100.00
8697;BME280;4385;48.848;8.924;2022-10-31T11:19:21;97646.84;;;21.38;100.00
8697;BME280;4385;48.848;8.924;2022-10-31T11:21:47;97650.22;;;21.40;100.00
8697;BME280;4385;48.848;8.924;2022-10-31T11:24:15;97648.41;;;21.42;100.00
8697;BME280;4385;48.848;8.924;2022-10-31T11:26:42;97653.44;;;21.45;100.00
8697;BME280;4385;48.848;8.924;2022-10-31T11:29:24;97649.03;;;21.50;100.00
8697;BME280;4385;48.848;8.924;2022-10-31T11:31:52;97649.81;;;21.52;100.00
8697;BME280;4385;48.848;8.924;2022-10-31T11:36:47;97654.00;;;21.55;100.00
8697;BME280;4385;48.848;8.924;2022-10-31T11:39:23;97648.03;;;21.54;100.00
8697;BME280;4385;48.848;8.924;2022-10-31T11:41:52;97637.78;;;21.54;100.00
8697;BME280;4385;48.848;8.924;2022-10-31T11:44:20;97636.06;;;21.55;100.00
8697;BME280;4385;48.848;8.924;2022-10-31T11:46:50;97637.00;;;21.52;100.00
8697;BME280;4385;48.848;8.924;2022-10-31T11:52:04;97638.81;;;21.49;100.00
8697;BME280;4385;48.848;8.924;2022-10-31T11:57:48;97627.81;;;21.45;100.00
8697;BME280;4385;48.848;8.924;2022-10-31T12:00:35;97620.28;;;21.40;100.00
8697;BME280;4385;48.848;8.924;2022-10-31T12:08:39;97608.78;;;21.25;100.00
8697;BME280;4385;48.848;8.924;2022-10-31T12:16:59;97597.75;;;21.23;100.00
8697;BME280;4385;48.848;8.924;2022-10-31T12:20:10;97592.63;;;21.23;100.00
8697;BME280;4385;48.848;8.924;2022-10-31T12:22:56;97586.56;;;21.26;100.00
8697;BME280;4385;48.848;8.924;2022-10-31T12:28:11;97587.41;;;21.26;100.00
8697;BME280;4385;48.848;8.924;2022-10-31T12:35:50;97579.09;;;21.18;100.00
8697;BME280;4385;48.848;8.924;2022-10-31T12:38:30;97579.19;;;21.15;100.00
8697;BME280;4385;48.848;8.924;2022-10-31T12:41:12;97572.13;;;21.23;100.00
8697;BME280;4385;48.848;8.924;2022-10-31T12:43:46;97568.66;;;21.24;100.00
8697;BME280;4385;48.848;8.924;2022-10-31T12:57:51;97537.03;;;21.25;100.00
8697;BME280;4385;48.848;8.924;2022-10-31T13:00:19;97529.34;;;21.25;100.00
8697;BME280;4385;48.848;8.924;2022-10-31T13:03:14;97525.88;;;21.26;100.00
8697;BME280;4385;48.848;8.924;2022-10-31T13:05:49;97520.75;;;21.26;100.00
8697;BME280;4385;48.848;8.924;2022-10-31T13:08:20;97523.31;;;21.26;100.00
8697;BME280;4385;48.848;8.924;2022-10-31T13:10:50;97517.31;;;21.27;100.00
8697;BME280;4385;48.848;8.924;2022-10-31T13:13:40;97508.84;;;21.25;100.00
8697;BME280;4385;48.848;8.924;2022-10-31T13:16:15;97504.59;;;21.24;100.00
8697;BME280;4385;48.848;8.924;2022-10-31T13:18:51;97508.91;;;21.24;100.00
8697;BME280;4385;48.848;8.924;2022-10-31T13:21:26;97508.06;;;21.23;100.00
8697;BME280;4385;48.848;8.924;2022-10-31T13:23:52;97511.47;;;21.24;100.00
8697;BME280;4385;48.848;8.924;2022-10-31T13:26:42;97514.84;;;21.24;100.00
8697;BME280;4385;48.848;8.924;2022-10-31T13:31:46;97517.41;;;21.24;100.00
8697;BME280;4385;48.848;8.924;2022-10-31T13:34:23;97508.94;;;21.22;100.00
8697;BME280;4385;48.848;8.924;2022-10-31T13:37:04;97508.75;;;21.28;100.00
8697;BME280;4385;48.848;8.924;2022-10-31T13:39:51;97500.09;;;21.31;100.00
8697;BME280;4385;48.848;8.924;2022-10-31T13:42:57;97496.69;;;21.30;100.00
8697;BME280;4385;48.848;8.924;2022-10-31T13:45:25;97505.22;;;21.31;100.00
8697;BME280;4385;48.848;8.924;2022-10-31T13:50:39;97505.22;;;21.31;100.00
8697;BME280;4385;48.848;8.924;2022-10-31T13:53:20;97495.03;;;21.29;100.00
8697;BME280;4385;48.848;8.924;2022-10-31T13:55:48;97487.34;;;21.29;100.00
8697;BME280;4385;48.848;8.924;2022-10-31T13:58:21;97482.22;;;21.29;100.00
8697;BME280;4385;48.848;8.924;2022-10-31T14:00:58;97474.53;;;21.29;100.00
8697;BME280;4385;48.848;8.924;2022-10-31T14:03:24;97473.69;;;21.29;100.00
8697;BME280;4385;48.848;8.924;2022-10-31T14:05:53;97472.03;;;21.28;100.00
8697;BME280;4385;48.848;8.924;2022-10-31T14:08:21;97480.59;;;21.27;100.00
8697;BME280;4385;48.848;8.924;2022-10-31T14:10:51;97479.75;;;21.26;100.00
8697;BME280;4385;48.848;8.924;2022-10-31T14:13:41;97474.63;;;21.26;100.00
8697;BME280;4385;48.848;8.924;2022-10-31T14:16:26;97469.56;;;21.25;100.00
8697;BME280;4385;48.848;8.924;2022-10-31T14:19:07;97469.63;;;21.23;100.00
8697;BME280;4385;48.848;8.924;2022-10-31T14:21:47;97467.09;;;21.22;100.00
8697;BME280;4385;48.848;8.924;2022-10-31T14:26:54;97458.56;;;21.21;100.00
8697;BME280;4385;48.848;8.924;2022-10-31T14:29:30;97461.19;;;21.20;100.00
8697;BME280;4385;48.848;8.924;2022-10-31T14:34:42;97455.28;;;21.17;100.00
8697;BME280;4385;48.848;8.924;2022-10-31T14:37:24;97452.69;;;21.19;100.00
8697;BME280;4385;48.848;8.924;2022-10-31T14:45:54;97461.34;;;21.15;100.00
8697;BME280;4385;48.848;8.924;2022-10-31T14:48:51;97452.00;;;21.14;100.00
8697;BME280;4385;48.848;8.924;2022-10-31T14:51:25;97458.00;;;21.13;100.00
8697;BME280;4385;48.848;8.924;2022-10-31T14:53:56;97457.28;;;21.09;100.00
8697;BME280;4385;48.848;8.924;2022-10-31T14:56:31;97454.75;;;21.08;100.00
8697;BME280;4385;48.848;8.924;2022-10-31T14:59:00;97451.41;;;21.05;100.00
8697;BME280;4385;48.848;8.924;2022-10-31T15:01:33;97452.31;;;21.04;100.00
8697;BME280;4385;48.848;8.924;2022-10-31T15:04:22;97455.75;;;21.03;100.00
8697;BME280;4385;48.848;8.924;2022-10-31T15:06:52;97451.50;;;21.02;100.00